Time;durP1;ratioP1;P1;durP2;ratioP2;P2;SDS_P1;SDS_P2;PMS_P1;PMS_P2;Temp;Humidity;BMP_temperature;BMP_pressure;BME280_temperature;BME280_humidity;BME280_pressure;Samples;Min_cycle;Max_cycle;Signal;HPM_P1;HPM_P2
2021/06/10 00:02:02;;;;;;;10.32;4.00;;;20.30;70.10;;;19.47;63.37;101069.78;5009750;28;20096;-82
2021/06/10 00:04:40;;;;;;;7.80;3.70;;;20.30;70.20;;;19.43;63.45;101069.41;5009555;28;20073;-82
2021/06/10 00:08:25;;;;;;;6.30;3.53;;;20.20;70.30;;;19.40;63.35;101072.63;5009793;28;20044;-83
2021/06/10 00:11:07;;;;;;;6.40;3.40;;;20.20;70.20;;;19.34;63.58;101074.41;4975250;28;20557;-83
2021/06/10 00:13:52;;;;;;;5.95;3.72;;;20.20;70.40;;;19.31;63.70;101068.47;5009674;28;20049;-83
2021/06/10 00:16:36;;;;;;;9.05;3.80;;;20.10;70.50;;;19.25;64.17;101074.94;5009223;28;20061;-82
2021/06/10 00:19:14;;;;;;;11.48;4.65;;;20.00;71.00;;;19.18;64.29;101069.47;5009429;28;20054;-83
2021/06/10 00:21:53;;;;;;;6.45;3.97;;;20.00;71.00;;;19.10;64.33;101073.38;4991205;28;20046;-82
2021/06/10 00:24:39;;;;;;;9.90;4.78;;;19.90;71.50;;;19.08;64.41;101075.50;4987156;28;20516;-82
2021/06/10 00:27:29;;;;;;;7.38;4.32;;;19.90;71.60;;;19.02;64.56;101075.56;5009185;28;20081;-83
2021/06/10 00:30:07;;;;;;;6.90;4.13;;;19.90;71.90;;;18.96;65.07;101074.56;5009101;28;20050;-82
2021/06/10 00:32:45;;;;;;;6.18;4.10;;;19.80;72.00;;;18.92;65.05;101076.06;4991264;28;20459;-82
2021/06/10 00:35:27;;;;;;;7.15;4.05;;;19.80;72.00;;;18.90;65.23;101072.69;5009210;28;20048;-82
2021/06/10 00:38:05;;;;;;;6.13;3.75;;;19.70;72.40;;;18.87;65.42;101067.66;5009036;28;20045;-82
2021/06/10 00:40:45;;;;;;;6.00;3.95;;;19.70;72.70;;;18.81;65.78;101068.53;4990950;28;20054;-82
2021/06/10 00:43:27;;;;;;;6.70;4.38;;;19.60;72.90;;;18.77;65.87;101073.63;5008495;28;20041;-82
2021/06/10 00:46:05;;;;;;;6.28;4.15;;;19.60;72.90;;;18.76;65.63;101072.78;5008811;28;20406;-82
2021/06/10 00:48:43;;;;;;;9.07;4.50;;;19.50;72.80;;;18.69;65.82;101074.75;5008651;28;20637;-82
2021/06/10 00:51:21;;;;;;;6.82;4.32;;;19.50;73.10;;;18.69;66.20;101074.75;5008636;28;20513;-82
2021/06/10 00:54:00;;;;;;;7.90;4.65;;;19.50;73.40;;;18.68;66.50;101072.25;5008689;28;20546;-82
2021/06/10 00:56:38;;;;;;;7.05;4.30;;;19.40;73.80;;;18.65;66.82;101067.16;5008620;28;20053;-82
2021/06/10 00:59:18;;;;;;;8.27;4.50;;;19.30;74.30;;;18.63;67.60;101072.06;5008909;28;20050;-82
2021/06/10 01:01:53;;;;;;;6.47;4.53;;;19.30;74.70;;;18.62;67.36;101070.34;5008605;28;20100;-82
2021/06/10 01:04:31;;;;;;;8.77;4.82;;;19.30;74.70;;;18.59;67.39;101071.66;5007238;28;20153;-82
2021/06/10 01:07:11;;;;;;;8.15;4.97;;;19.30;75.00;;;18.59;67.71;101074.41;5008660;28;20046;-82
2021/06/10 01:09:51;;;;;;;8.32;4.57;;;19.30;75.20;;;18.55;68.28;101075.94;5008265;28;20050;-82
2021/06/10 01:12:37;;;;;;;7.75;4.78;;;19.30;75.40;;;18.55;68.69;101070.44;5008738;28;20038;-82
2021/06/10 01:15:18;;;;;;;7.47;4.93;;;19.30;76.00;;;18.54;68.56;101066.84;5008708;28;20046;-82
2021/06/10 01:17:55;;;;;;;9.45;5.60;;;19.30;75.80;;;18.54;68.71;101063.22;5007131;28;20069;-83
2021/06/10 01:20:30;;;;;;;9.93;5.00;;;19.30;75.90;;;18.52;69.31;101065.34;4990579;28;20073;-82
2021/06/10 01:23:31;;;;;;;9.43;5.05;;;19.30;76.60;;;18.52;70.14;101054.31;5008442;28;20045;-82
2021/06/10 01:26:33;;;;;;;8.65;5.65;;;19.30;77.10;;;18.50;70.32;101061.97;5008504;28;20042;-82
2021/06/10 01:29:25;;;;;;;10.68;6.40;;;19.30;77.30;;;18.48;70.00;101058.59;5027574;22;20056;-83
2021/06/10 01:32:03;;;;;;;11.25;8.30;;;19.30;76.90;;;18.46;70.12;101057.97;5028194;28;20053;-83
2021/06/10 01:34:44;;;;;;;13.63;9.02;;;19.30;76.90;;;18.45;69.69;101054.41;5028023;28;20046;-83
2021/06/10 01:37:23;;;;;;;13.77;8.93;;;19.30;76.90;;;18.41;70.23;101046.78;5028049;28;20052;-83
2021/06/10 01:40:03;;;;;;;12.25;8.95;;;19.20;77.20;;;18.39;69.94;101054.44;5027694;28;20081;-83
2021/06/10 01:42:43;;;;;;;10.30;7.65;;;19.20;77.00;;;18.33;70.03;101046.00;5028159;28;20568;-83
2021/06/10 01:45:24;;;;;;;11.35;7.80;;;19.10;76.90;;;18.27;70.12;101044.13;5027882;28;20049;-83
2021/06/10 01:48:00;;;;;;;9.88;6.60;;;19.10;77.00;;;18.22;70.08;101043.97;5028304;28;20460;-83
2021/06/10 01:50:39;;;;;;;9.35;6.78;;;19.10;77.00;;;18.21;70.08;101042.25;5027780;28;20048;-83
2021/06/10 01:53:17;;;;;;;8.48;6.43;;;19.00;77.20;;;18.16;70.17;101044.81;5028083;28;20079;-83
2021/06/10 01:55:57;;;;;;;10.90;6.78;;;19.00;77.40;;;18.14;70.46;101046.97;5029751;28;20107;-83
2021/06/10 01:58:33;;;;;;;11.77;7.03;;;18.90;77.60;;;18.12;70.50;101049.94;5031792;28;20076;-83
2021/06/10 02:01:16;;;;;;;9.90;6.43;;;18.90;77.70;;;18.08;70.68;101045.09;5031318;28;20050;-83
2021/06/10 02:03:57;;;;;;;11.32;6.20;;;18.90;78.00;;;18.02;70.86;101048.75;5031434;28;20041;-83
2021/06/10 02:06:35;;;;;;;8.00;6.40;;;18.80;78.00;;;17.98;71.22;101037.31;5031543;28;20052;-83
2021/06/10 02:09:15;;;;;;;11.90;7.07;;;18.70;78.20;;;17.92;71.59;101038.22;5031391;28;20041;-83
2021/06/10 02:11:54;;;;;;;8.75;6.28;;;18.70;78.30;;;17.92;71.47;101039.06;5031249;28;20052;-83
2021/06/10 02:14:32;;;;;;;9.57;6.40;;;18.70;78.70;;;17.92;71.95;101039.06;5031083;28;20052;-83
2021/06/10 02:17:15;;;;;;;8.35;6.28;;;18.70;78.90;;;17.90;72.11;101032.91;5031249;28;20045;-83
2021/06/10 02:19:50;;;;;;;10.68;6.43;;;18.70;79.10;;;17.89;72.10;101030.38;5030819;28;20045;-83
2021/06/10 02:22:28;;;;;;;8.68;6.07;;;18.70;79.30;;;17.87;72.66;101027.84;5031259;28;20054;-83
2021/06/10 02:25:04;;;;;;;9.23;6.57;;;18.70;79.60;;;17.86;72.70;101033.56;5031207;28;20076;-83
2021/06/10 02:27:43;;;;;;;9.23;6.30;;;18.70;79.60;;;17.89;72.68;101020.19;5013359;28;20093;-83
2021/06/10 02:30:20;;;;;;;10.40;6.32;;;18.70;79.90;;;17.87;73.17;101030.59;5014171;28;20081;-83
2021/06/10 02:33:11;;;;;;;11.75;6.35;;;18.70;80.20;;;17.88;73.29;101028.72;5027577;28;20073;-83
2021/06/10 02:35:50;;;;;;;9.52;6.57;;;18.70;80.20;;;17.89;73.19;101031.22;4991413;28;20050;-83
2021/06/10 02:38:30;;;;;;;7.32;5.53;;;18.70;80.20;;;17.88;72.92;101029.56;4991665;28;20049;-83
2021/06/10 02:41:08;;;;;;;8.93;6.43;;;18.70;80.40;;;17.90;72.88;101024.66;4991068;28;20046;-82
2021/06/10 02:43:48;;;;;;;8.07;5.70;;;18.60;80.00;;;17.85;73.01;101021.72;4991435;28;20038;-83
2021/06/10 02:46:27;;;;;;;11.90;6.47;;;18.60;80.00;;;17.84;73.20;101024.66;4991406;28;20451;-83
2021/06/10 02:49:05;;;;;;;8.90;6.40;;;18.60;80.20;;;17.84;73.09;101027.41;4973551;28;20501;-83
2021/06/10 02:51:43;;;;;;;10.00;5.85;;;18.60;80.30;;;17.77;73.38;101031.03;4991054;28;20046;-83
2021/06/10 02:54:25;;;;;;;9.27;5.97;;;18.50;80.30;;;17.71;73.41;101020.91;4991356;28;20113;-83
2021/06/10 02:57:04;;;;;;;8.48;5.82;;;18.50;80.40;;;17.67;73.57;101021.56;4991323;28;20053;-83
2021/06/10 02:59:45;;;;;;;9.80;5.78;;;18.40;80.30;;;17.65;73.40;101024.56;4990826;28;20254;-83
2021/06/10 03:02:24;;;;;;;9.82;6.38;;;18.40;80.30;;;17.64;73.61;101024.78;4991192;28;20073;-83
2021/06/10 03:05:00;;;;;;;9.50;6.10;;;18.40;80.50;;;17.59;73.64;101028.16;4991066;28;20409;-83
2021/06/10 03:07:36;;;;;;;7.93;5.78;;;18.30;80.50;;;17.53;73.71;101023.53;4990727;28;20053;-83
2021/06/10 03:10:19;;;;;;;16.15;6.07;;;18.30;80.50;;;17.48;73.77;101021.44;4990647;28;20062;-83
2021/06/10 03:12:58;;;;;;;8.70;6.05;;;18.30;80.60;;;17.51;73.77;101026.50;4991126;28;20050;-83
2021/06/10 03:15:39;;;;;;;10.25;5.72;;;18.30;80.90;;;17.48;73.95;101021.44;4973274;28;20112;-83
2021/06/10 03:18:17;;;;;;;10.40;6.22;;;18.20;80.80;;;17.44;73.97;101022.94;4990893;28;20158;-82
2021/06/10 03:20:57;;;;;;;8.63;6.32;;;18.20;80.90;;;17.41;74.50;101028.88;4990239;28;20042;-83
2021/06/10 03:23:36;;;;;;;10.07;5.72;;;18.20;81.00;;;17.40;74.22;101029.94;4973113;28;20047;-82
2021/06/10 03:26:10;;;;;;;8.70;5.68;;;18.10;81.20;;;17.35;74.34;101027.00;4990549;28;20058;-82
2021/06/10 03:28:46;;;;;;;8.05;5.50;;;18.10;81.10;;;17.32;74.48;101028.25;4990572;28;20085;-83
2021/06/10 03:31:24;;;;;;;9.32;6.05;;;18.10;81.40;;;17.29;74.41;101023.22;4990247;28;20648;-82
2021/06/10 03:34:03;;;;;;;10.82;6.57;;;18.10;81.40;;;17.28;74.61;101029.75;4990678;28;20053;-83
2021/06/10 03:36:40;;;;;;;7.90;5.78;;;18.00;81.50;;;17.26;74.78;101022.78;4990574;28;20065;-83
2021/06/10 03:39:17;;;;;;;10.57;6.88;;;18.00;81.50;;;17.27;74.73;101019.84;4990323;28;20046;-83
2021/06/10 03:41:56;;;;;;;10.57;7.70;;;18.00;81.60;;;17.25;74.72;101016.47;4990177;28;20042;-83
2021/06/10 03:44:32;;;;;;;11.63;7.60;;;18.00;81.70;;;17.25;74.89;101012.84;4990292;28;20503;-83
2021/06/10 03:47:10;;;;;;;17.55;7.75;;;18.00;81.80;;;17.22;74.88;101021.53;4990349;28;20070;-83
2021/06/10 03:49:47;;;;;;;10.90;7.45;;;18.00;81.70;;;17.16;75.02;101018.59;4989747;28;20400;-83
2021/06/10 03:52:41;;;;;;;12.52;8.57;;;18.00;81.80;;;17.20;74.92;101002.50;4990218;28;20057;-83
2021/06/10 03:55:20;;;;;;;10.85;7.88;;;17.90;81.90;;;17.18;75.18;101010.97;4972433;28;20066;-83
2021/06/10 03:57:58;;;;;;;12.55;8.23;;;17.90;82.00;;;17.15;75.66;101007.78;4990126;28;20097;-83
2021/06/10 04:00:33;;;;;;;13.90;7.75;;;17.90;82.10;;;17.14;75.73;101006.97;4989296;28;20066;-83
2021/06/10 04:03:05;;;;;;;11.38;8.40;;;17.90;82.20;;;17.12;75.62;101011.84;4990091;28;20046;-83
2021/06/10 04:05:43;;;;;;;11.05;8.10;;;17.90;82.40;;;17.14;76.11;101015.22;4972377;28;20046;-83
2021/06/10 04:08:35;;;;;;;11.88;9.23;;;17.90;82.60;;;17.14;76.13;101012.47;4990160;28;20058;-83
2021/06/10 04:11:10;;;;;;;;;;;17.90;82.80;;;17.15;75.82;101016.91;4990014;28;20430;-83
2021/06/10 04:13:48;;;;;;;12.60;9.32;;;17.90;82.70;;;17.15;75.83;101021.56;4989916;28;20349;-83
2021/06/10 04:16:28;;;;;;;17.65;10.43;;;17.90;82.70;;;17.17;76.06;101023.03;4989899;28;20615;-82
2021/06/10 04:19:06;;;;;;;17.30;11.35;;;17.90;82.80;;;17.15;76.52;101027.91;4989245;28;20077;-83
2021/06/10 04:21:43;;;;;;;17.35;9.40;;;17.90;82.90;;;17.16;76.48;101032.34;4989494;28;20046;-83
2021/06/10 04:24:43;;;;;;;19.10;10.95;;;17.90;83.10;;;17.17;76.82;101024.94;4989770;28;20140;-82
2021/06/10 04:27:21;;;;;;;16.55;11.38;;;17.90;83.40;;;17.20;77.03;101033.59;4992155;28;20495;-82
2021/06/10 04:30:07;;;;;;;17.27;12.20;;;18.00;83.50;;;17.24;77.20;101030.44;4989247;28;20510;-82
2021/06/10 04:32:48;;;;;;;16.88;11.68;;;18.00;83.60;;;17.26;77.72;101029.13;4971998;28;20042;-81
2021/06/10 04:35:25;;;;;;;19.30;12.43;;;18.00;83.80;;;17.31;77.80;101021.09;4989555;28;20045;-79
2021/06/10 04:38:01;;;;;;;19.55;12.32;;;18.10;84.00;;;17.36;78.02;101024.03;4989522;28;20050;-79
2021/06/10 04:40:43;;;;;;;19.13;12.05;;;18.10;84.10;;;17.44;77.87;101016.59;4989090;28;20054;-86
2021/06/10 04:43:21;;;;;;;15.95;11.18;;;18.20;84.20;;;17.50;78.28;101018.50;4989555;28;20691;-82
2021/06/10 04:45:59;;;;;;;18.98;11.63;;;18.30;84.30;;;17.56;78.50;101021.19;4988653;28;20100;-82
2021/06/10 04:48:34;;;;;;;16.35;11.75;;;18.30;84.40;;;17.63;78.44;101018.44;4989185;28;20053;-82
2021/06/10 04:51:10;;;;;;;23.15;12.85;;;18.40;84.40;;;17.69;78.63;101016.72;4988957;28;20047;-82
2021/06/10 04:53:48;;;;;;;18.38;11.15;;;18.40;84.30;;;17.75;78.50;101022.16;4989415;28;20418;-82
2021/06/10 04:56:31;;;;;;;13.20;9.50;;;18.50;84.10;;;17.83;77.87;101018.31;4989189;28;20072;-82
2021/06/10 04:59:00;;;;;;;14.52;8.95;;;18.60;83.80;;;17.92;78.03;101025.28;4989177;28;20050;-82
2021/06/10 05:01:39;;;;;;;11.70;9.07;;;18.70;83.90;;;18.00;77.30;101015.91;4988866;28;20046;-82
2021/06/10 05:04:17;;;;;;;12.98;9.23;;;18.70;83.60;;;18.07;77.18;101016.72;4989226;28;20061;-82
2021/06/10 05:06:56;;;;;;;13.55;9.35;;;18.80;83.50;;;18.13;77.34;101021.34;4989064;28;20050;-82
2021/06/10 05:09:34;;;;;;;14.15;9.35;;;18.90;83.80;;;18.21;77.32;101019.38;4988554;28;20770;-82
2021/06/10 05:12:14;;;;;;;13.38;9.80;;;19.00;84.10;;;18.27;77.75;101016.56;4989044;28;20057;-83
2021/06/10 05:14:52;;;;;;;13.23;10.40;;;19.00;84.20;;;18.33;78.37;101014.81;4989243;28;20050;-83
2021/06/10 05:17:31;;;;;;;15.02;10.18;;;19.10;84.60;;;18.38;78.17;101020.53;4989101;28;20565;-83
2021/06/10 05:20:07;;;;;;;17.40;11.52;;;19.20;84.20;;;18.43;77.90;101022.59;4994757;28;20048;-83
2021/06/10 05:22:45;;;;;;;18.45;12.57;;;19.30;83.70;;;18.47;77.70;101026.63;5008747;28;20077;-83
2021/06/10 05:25:20;;;;;;;20.50;13.85;;;19.30;83.50;;;18.51;77.58;101030.59;5008497;28;20053;-84
2021/06/10 05:28:04;;;;;;;19.15;13.45;;;19.40;83.30;;;18.57;77.85;101026.94;4990842;28;20498;-84
2021/06/10 05:30:42;;;;;;;20.60;13.50;;;19.50;83.40;;;18.60;77.46;101021.00;5011110;28;20156;-83
2021/06/10 05:33:20;;;;;;;20.73;13.00;;;19.50;83.10;;;18.65;77.17;101023.88;5012578;28;20053;-84
2021/06/10 05:35:58;;;;;;;20.92;14.35;;;19.60;82.40;;;18.69;76.92;101022.38;5012491;28;20092;-81
2021/06/10 05:38:36;;;;;;;17.08;13.10;;;19.70;82.30;;;18.75;77.03;101023.38;5012371;28;20050;-82
2021/06/10 05:41:08;;;;;;;19.52;13.63;;;19.80;82.40;;;18.80;77.28;101025.47;5011886;28;20046;-81
2021/06/10 05:43:48;;;;;;;21.15;13.45;;;19.90;82.90;;;18.87;77.17;101023.53;5012369;28;20049;-78
2021/06/10 05:46:22;;;;;;;21.50;14.10;;;20.00;82.40;;;18.95;76.90;101023.22;5012125;28;20125;-79
2021/06/10 05:49:00;;;;;;;20.20;13.18;;;20.00;81.70;;;19.07;76.83;101018.63;5012104;28;20045;-79
2021/06/10 05:51:33;;;;;;;18.27;12.57;;;20.20;81.90;;;19.24;76.45;101018.03;5011112;28;20052;-79
2021/06/10 05:54:06;;;;;;;18.17;11.32;;;20.80;80.10;;;19.46;75.26;101033.06;5011952;28;20042;-80
2021/06/10 05:56:44;;;;;;;17.77;10.50;;;21.50;76.80;;;19.70;74.58;101025.75;5008548;28;20096;-80
2021/06/10 05:59:21;;;;;;;20.17;11.23;;;22.30;74.20;;;20.00;72.96;101035.16;5005709;28;20046;-79
2021/06/10 06:01:53;;;;;;;15.65;10.93;;;23.20;70.40;;;20.27;70.67;101035.59;4992117;28;20185;-80
2021/06/10 06:04:31;;;;;;;14.57;9.80;;;24.00;66.40;;;20.52;69.74;101038.16;5004662;28;20058;-80
2021/06/10 06:07:11;;;;;;;13.88;10.18;;;24.80;63.50;;;20.78;68.97;101045.19;5011771;28;20049;-80
2021/06/10 06:09:49;;;;;;;13.90;9.20;;;25.60;60.00;;;21.05;67.01;101040.03;4991648;28;20050;-80
2021/06/10 06:12:23;;;;;;;13.52;8.80;;;26.30;57.40;;;21.26;66.16;101046.03;4992286;28;20042;-80
2021/06/10 06:15:05;;;;;;;13.30;7.80;;;27.00;55.30;;;21.46;64.18;101035.44;4992162;28;20121;-80
2021/06/10 06:17:46;;;;;;;13.45;8.07;;;27.60;52.60;;;21.66;63.85;101029.47;4992034;28;20101;-81
2021/06/10 06:20:26;;;;;;;11.05;7.53;;;28.10;51.30;;;21.87;63.26;101024.31;4991582;28;20059;-80
2021/06/10 06:23:04;;;;;;;13.02;7.38;;;28.40;49.80;;;22.06;61.61;101030.50;4991932;28;20094;-80
2021/06/10 06:25:39;;;;;;;15.10;7.32;;;28.90;47.90;;;22.21;60.61;101029.94;4992023;28;20054;-80
2021/06/10 06:28:17;;;;;;;13.27;6.60;;;29.00;46.80;;;22.31;60.47;101029.31;4992144;28;20042;-80
2021/06/10 06:30:54;;;;;;;13.27;6.97;;;29.10;45.80;;;22.36;60.50;101037.75;4993892;28;20454;-80
2021/06/10 06:33:33;;;;;;;12.88;6.93;;;29.10;45.30;;;22.37;59.95;101039.41;4991942;28;20057;-80
2021/06/10 06:36:09;;;;;;;14.15;7.45;;;28.80;45.40;;;22.34;59.89;101046.31;5017863;28;20413;-80
2021/06/10 06:38:44;;;;;;;14.75;6.18;;;27.50;49.30;;;22.25;59.95;101048.63;5011053;28;20056;-79
2021/06/10 06:41:25;;;;;;;17.73;6.18;;;26.50;52.10;;;22.15;60.41;101048.44;4992449;28;20403;-79
2021/06/10 06:44:00;;;;;;;12.98;5.70;;;25.90;54.40;;;22.06;59.36;101050.75;5009397;28;20108;-77
2021/06/10 06:46:54;;;;;;;12.73;5.57;;;25.40;55.70;;;21.99;59.66;101055.63;5011296;28;20072;-79
2021/06/10 06:49:32;;;;;;;10.48;6.22;;;25.00;56.60;;;21.90;58.81;101056.25;5010891;28;20042;-80
2021/06/10 06:52:11;;;;;;;12.32;6.13;;;24.60;57.00;;;21.81;59.27;101050.25;5011033;28;20045;-79
2021/06/10 06:54:49;;;;;;;12.00;6.53;;;24.40;58.30;;;21.76;60.17;101053.78;5010991;28;20517;-79
2021/06/10 06:57:19;;;;;;;13.35;6.90;;;24.20;59.30;;;21.72;60.44;101060.88;5009571;28;20403;-79
2021/06/10 06:59:54;;;;;;;10.30;5.38;;;24.10;59.60;;;21.69;60.84;101058.63;5010443;28;20049;-79
2021/06/10 07:02:46;;;;;;;11.93;5.60;;;24.00;60.00;;;21.67;61.77;101060.78;5010603;28;20061;-79
2021/06/10 07:05:24;;;;;;;9.25;4.70;;;23.90;61.30;;;21.63;60.59;101054.91;5010861;28;20395;-79
2021/06/10 07:07:56;;;;;;;9.90;4.40;;;23.80;60.30;;;21.61;60.80;101056.22;5010950;28;20046;-78
2021/06/10 07:10:31;;;;;;;10.32;4.43;;;23.70;60.40;;;21.57;61.13;101064.19;5010480;28;20072;-80
2021/06/10 07:13:09;;;;;;;10.15;3.92;;;23.70;60.60;;;21.58;59.73;101065.84;5010649;28;20045;-81
2021/06/10 07:15:47;;;;;;;8.90;3.67;;;23.70;60.30;;;21.60;59.76;101068.41;5010638;28;20500;-81
2021/06/10 07:21:51;;;;;;;11.43;3.67;;;23.60;59.90;;;21.58;57.16;101073.34;5138411;27;20124;-81
2021/06/10 07:24:29;;;;;;;7.32;3.28;;;23.50;58.80;;;21.62;59.97;101071.75;5085488;28;20048;-81
2021/06/10 07:27:04;;;;;;;7.82;3.75;;;23.50;60.70;;;21.62;59.73;101077.28;5086031;28;20051;-81
2021/06/10 07:29:42;;;;;;;8.45;4.00;;;23.50;60.20;;;21.66;59.80;101078.50;5085475;28;20064;-81
2021/06/10 07:32:20;;;;;;;9.60;4.22;;;23.50;60.90;;;21.69;59.35;101074.41;5085939;28;20045;-80
2021/06/10 07:34:58;;;;;;;11.52;4.18;;;23.60;60.50;;;21.70;58.58;101071.38;5084519;28;20066;-81
2021/06/10 07:37:44;;;;;;;16.63;5.10;;;23.60;60.20;;;21.74;57.85;101068.94;5085438;28;20052;-81
2021/06/10 07:40:24;;;;;;;13.00;4.30;;;23.60;59.40;;;21.79;57.87;101069.06;5083628;28;20359;-81
2021/06/10 07:43:02;;;;;;;9.43;3.67;;;23.60;58.80;;;21.78;58.49;101071.00;5085124;28;20040;-81
2021/06/10 07:45:41;;;;;;;6.53;3.20;;;23.60;59.70;;;21.82;58.33;101061.09;5085579;28;20048;-81
2021/06/10 07:48:17;;;;;;;7.80;3.30;;;23.60;58.90;;;21.83;59.62;101062.78;5085111;28;20078;-81
2021/06/10 07:50:53;;;;;;;8.13;3.28;;;23.60;60.20;;;21.85;56.22;101063.38;5083716;28;20052;-81
2021/06/10 07:53:30;;;;;;;10.43;3.53;;;23.70;58.50;;;21.91;58.92;101072.63;5085631;28;20055;-81
2021/06/10 07:56:11;;;;;;;7.53;3.67;;;23.70;59.80;;;21.96;59.10;101069.97;5085255;28;20537;-81
2021/06/10 07:58:49;;;;;;;7.38;3.25;;;23.70;60.30;;;21.97;59.74;101068.03;5085435;28;20048;-82
2021/06/10 08:01:27;;;;;;;6.30;3.20;;;23.70;60.80;;;21.99;58.30;101071.38;5081848;28;20660;-83
2021/06/10 08:04:02;;;;;;;7.78;3.80;;;23.70;59.70;;;22.00;59.16;101073.09;5083055;28;20040;-83
2021/06/10 08:06:46;;;;;;;9.38;4.43;;;23.80;60.60;;;22.03;59.80;101078.16;5081263;28;20047;-83
2021/06/10 08:09:23;;;;;;;9.05;4.10;;;23.80;60.80;;;22.03;58.27;101073.44;5084692;28;20040;-83
2021/06/10 08:12:04;;;;;;;9.25;4.00;;;23.80;59.30;;;22.06;58.85;101072.09;5085046;28;20055;-77
2021/06/10 08:14:42;;;;;;;9.55;4.40;;;23.80;60.30;;;22.08;59.20;101074.63;5084782;28;20044;-81
2021/06/10 08:17:16;;;;;;;13.30;6.07;;;23.80;60.50;;;22.09;58.50;101074.38;5085023;28;20032;-79
2021/06/10 08:19:54;;;;;;;11.57;5.38;;;23.80;59.30;;;22.07;58.28;101084.88;5084486;28;20073;-80
2021/06/10 08:22:32;;;;;;;9.10;4.90;;;23.80;59.80;;;22.11;62.51;101074.97;5084675;28;20048;-79
2021/06/10 08:25:10;;;;;;;9.10;4.68;;;23.90;63.80;;;22.12;58.32;101078.56;5084555;28;20040;-80
2021/06/10 08:27:48;;;;;;;9.85;4.28;;;23.90;60.10;;;22.13;57.70;101086.66;5084964;28;20504;-79
2021/06/10 08:30:22;;;;;;;10.88;4.38;;;23.90;59.50;;;22.23;59.46;101080.44;5084320;28;20716;-79
2021/06/10 08:32:58;;;;;;;10.82;4.25;;;23.90;60.50;;;22.23;60.16;101070.19;5070891;28;20041;-79
2021/06/10 08:35:33;;;;;;;8.43;3.83;;;24.00;61.30;;;22.22;60.36;101074.06;5071073;28;20106;-79
2021/06/10 08:38:09;;;;;;;10.15;4.15;;;24.00;61.30;;;22.27;59.02;101072.50;5071290;28;20068;-79
2021/06/10 08:40:49;;;;;;;8.45;4.45;;;24.10;60.60;;;22.34;57.62;101075.97;5070518;28;20132;-79
2021/06/10 08:43:24;;;;;;;8.65;4.18;;;24.10;59.30;;;22.33;58.53;101071.50;5071129;28;20051;-79
2021/06/10 08:46:10;;;;;;;9.23;4.60;;;24.10;59.80;;;22.35;61.36;101072.97;5069573;28;20052;-79
2021/06/10 08:48:51;;;;;;;10.50;4.90;;;24.10;63.60;;;22.41;56.59;101085.81;5070621;28;20036;-79
2021/06/10 08:51:29;;;;;;;7.35;4.20;;;24.10;58.40;;;22.36;57.93;101085.72;5070750;28;20040;-77
2021/06/10 08:54:06;;;;;;;8.32;4.65;;;24.10;58.70;;;22.36;58.72;101087.66;5070674;28;20049;-79
2021/06/10 08:56:44;;;;;;;7.82;4.05;;;24.10;60.20;;;22.41;59.42;101085.81;5069454;28;20393;-79
2021/06/10 08:59:16;;;;;;;10.68;4.30;;;24.20;60.60;;;22.48;58.25;101085.66;5070466;28;20048;-79
2021/06/10 09:01:54;;;;;;;8.93;4.15;;;24.20;59.90;;;22.45;58.95;101089.78;5070434;28;20389;-79
2021/06/10 09:04:29;;;;;;;8.73;3.88;;;24.20;60.00;;;22.57;54.59;101094.41;5070668;28;20040;-79
2021/06/10 09:07:08;;;;;;;8.00;4.00;;;24.20;56.50;;;22.54;56.95;101084.66;5070711;28;20052;-79
2021/06/10 09:09:50;;;;;;;8.68;3.70;;;24.20;58.30;;;22.52;56.44;101092.38;5069896;28;20047;-79
2021/06/10 09:12:27;;;;;;;7.97;3.75;;;24.20;58.70;;;22.55;58.90;101086.34;5070571;28;20056;-79
2021/06/10 09:15:09;;;;;;;7.55;4.03;;;24.30;60.20;;;22.60;59.51;101097.53;5070404;28;20059;-79
2021/06/10 09:17:46;;;;;;;6.50;3.63;;;24.30;60.70;;;22.56;58.70;101092.72;5070575;28;20041;-80
2021/06/10 09:20:42;;;;;;;5.55;3.60;;;24.30;59.50;;;22.59;60.31;101086.69;5069672;28;20036;-79
2021/06/10 09:23:23;;;;;;;5.82;3.40;;;24.40;61.00;;;22.61;59.48;101101.13;5070521;28;20401;-79
2021/06/10 09:26:09;;;;;;;6.32;4.20;;;24.40;60.70;;;22.69;59.25;101080.47;5070352;28;20052;-80
2021/06/10 09:29:05;;;;;;;7.03;3.38;;;24.50;60.20;;;22.65;58.85;101089.28;5070217;28;20499;-80
2021/06/10 09:31:44;;;;;;;5.28;3.10;;;24.50;59.70;;;22.68;57.96;101084.34;5069810;28;20052;-79
2021/06/10 09:34:29;;;;;;;6.90;3.40;;;24.50;59.40;;;22.75;55.66;101085.00;5070184;28;20040;-79
2021/06/10 09:37:07;;;;;;;7.05;3.08;;;24.40;57.20;;;22.76;57.10;101083.91;5069889;28;20623;-80
2021/06/10 09:39:57;;;;;;;9.65;3.45;;;24.50;58.40;;;22.70;58.10;101085.75;5069583;28;20045;-79
2021/06/10 09:42:35;;;;;;;8.50;3.38;;;24.50;59.20;;;22.72;60.00;101091.06;5069440;28;20489;-80
2021/06/10 09:45:19;;;;;;;6.38;3.03;;;24.50;60.80;;;22.69;59.32;101091.56;5069748;28;20044;-79
2021/06/10 09:47:59;;;;;;;4.88;2.83;;;24.50;60.00;;;22.73;58.17;101087.19;5069989;28;20147;-79
2021/06/10 09:50:42;;;;;;;6.15;3.22;;;24.50;59.10;;;22.70;58.56;101091.31;5069234;28;20055;-79
2021/06/10 09:53:23;;;;;;;6.03;3.38;;;24.60;59.40;;;22.76;56.91;101092.25;5069385;28;20040;-79
2021/06/10 09:56:07;;;;;;;6.00;3.20;;;24.50;58.50;;;22.74;58.15;101086.94;5068163;28;20063;-79
2021/06/10 09:58:53;;;;;;;5.25;2.72;;;24.60;59.70;;;22.81;57.67;101086.78;5069524;28;20070;-79
2021/06/10 10:01:33;;;;;;;6.35;3.33;;;24.60;58.40;;;22.99;54.57;101091.22;5082416;28;20063;-80
2021/06/10 10:04:09;;;;;;;5.78;3.10;;;24.70;56.40;;;22.94;57.09;101089.22;5068966;28;20494;-80
2021/06/10 10:06:47;;;;;;;7.63;3.13;;;24.70;58.50;;;22.95;58.55;101087.28;5066303;28;20408;-79
2021/06/10 10:09:26;;;;;;;5.00;2.55;;;24.70;59.70;;;22.87;58.75;101091.31;5069205;28;20409;-79
2021/06/10 10:12:04;;;;;;;7.93;2.83;;;24.70;59.70;;;22.88;57.12;101095.75;5069031;28;20138;-79
2021/06/10 10:14:40;;;;;;;5.85;2.88;;;24.70;58.70;;;22.99;56.60;101092.06;5069243;28;20047;-80
2021/06/10 10:17:19;;;;;;;4.40;2.95;;;24.70;57.80;;;22.93;59.04;101087.53;5069032;28;20040;-79
2021/06/10 10:19:58;;;;;;;5.15;2.72;;;24.70;59.40;;;22.96;58.76;101086.16;5068679;28;20045;-79
2021/06/10 10:22:31;;;;;;;6.28;2.92;;;24.80;59.60;;;22.88;56.66;101089.38;5068951;28;20471;-79
2021/06/10 10:25:11;;;;;;;7.35;3.10;;;24.70;57.40;;;22.86;56.04;101086.84;5065472;28;20044;-79
2021/06/10 10:27:46;;;;;;;6.78;2.70;;;24.70;57.50;;;22.88;54.94;101079.09;5064456;28;20076;-79
2021/06/10 10:30:26;;;;;;;5.57;3.00;;;24.70;57.30;;;22.90;57.91;101079.69;5048551;28;20041;-79
2021/06/10 10:33:22;;;;;;;4.97;2.90;;;24.70;59.40;;;22.95;57.71;101079.78;5048907;28;20513;-79
2021/06/10 10:36:03;;;;;;;10.60;4.05;;;24.70;59.90;;;22.98;58.70;101084.84;5065602;28;20067;-79
2021/06/10 10:38:44;;;;;;;5.13;3.65;;;24.70;59.40;;;22.94;56.77;101083.66;5068866;28;20051;-79
2021/06/10 10:41:21;;;;;;;8.60;3.97;;;24.80;58.50;;;22.92;55.93;101085.00;5067499;28;20059;-79
2021/06/10 10:44:21;;;;;;;5.97;3.20;;;24.70;57.00;;;22.83;58.07;101088.19;5052267;28;20044;-79
2021/06/10 10:47:11;;;;;;;6.60;3.60;;;24.70;58.30;;;22.86;57.18;101089.63;5058758;28;20577;-79
2021/06/10 10:50:03;;;;;;;7.32;3.50;;;24.70;58.90;;;22.83;58.22;101079.03;5067596;28;20037;-79
2021/06/10 10:52:54;;;;;;;6.47;3.70;;;24.70;58.40;;;22.83;55.46;101074.31;5068426;28;20056;-80
2021/06/10 10:55:32;;;;;;;5.72;3.30;;;24.70;56.80;;;22.76;58.24;101070.03;5068217;28;20044;-79
2021/06/10 10:58:11;;;;;;;6.25;3.22;;;24.60;59.20;;;22.75;56.01;101062.78;5068113;28;20044;-80
2021/06/10 11:01:07;;;;;;;7.90;3.33;;;24.60;57.60;;;22.82;61.80;101055.97;5062571;28;20055;-80
2021/06/10 11:03:47;;;;;;;6.13;3.72;;;24.70;60.80;;;22.86;59.34;101052.72;5068352;28;20040;-80